sensor_id;sensor_type;location;lat;lon;timestamp;temperature;humidity
71184;DHT22;58887;51.980;4.464;2023-06-10T00:00:37;22.43;58.39
71184;DHT22;58887;51.980;4.464;2023-06-10T00:03:03;22.31;58.72
71184;DHT22;58887;51.980;4.464;2023-06-10T00:05:28;22.22;58.88
71184;DHT22;58887;51.980;4.464;2023-06-10T00:07:55;22.19;58.94
71184;DHT22;58887;51.980;4.464;2023-06-10T00:10:22;22.18;58.63
71184;DHT22;58887;51.980;4.464;2023-06-10T00:12:47;22.12;58.70
71184;DHT22;58887;51.980;4.464;2023-06-10T00:15:19;22.04;58.94
71184;DHT22;58887;51.980;4.464;2023-06-10T00:17:44;22.02;58.83
71184;DHT22;58887;51.980;4.464;2023-06-10T00:20:10;21.95;58.99
71184;DHT22;58887;51.980;4.464;2023-06-10T00:22:38;21.95;58.72
71184;DHT22;58887;51.980;4.464;2023-06-10T00:25:09;21.93;58.84
71184;DHT22;58887;51.980;4.464;2023-06-10T00:27:35;21.87;59.08
71184;DHT22;58887;51.980;4.464;2023-06-10T00:30:03;21.85;58.94
71184;DHT22;58887;51.980;4.464;2023-06-10T00:32:30;21.80;58.98
71184;DHT22;58887;51.980;4.464;2023-06-10T00:34:56;21.77;59.41
71184;DHT22;58887;51.980;4.464;2023-06-10T00:37:21;21.74;59.17
71184;DHT22;58887;51.980;4.464;2023-06-10T00:39:47;21.71;59.34
71184;DHT22;58887;51.980;4.464;2023-06-10T00:42:13;21.68;59.31
71184;DHT22;58887;51.980;4.464;2023-06-10T00:44:38;21.64;59.62
71184;DHT22;58887;51.980;4.464;2023-06-10T00:47:05;21.61;59.51
71184;DHT22;58887;51.980;4.464;2023-06-10T00:49:32;21.54;59.62
71184;DHT22;58887;51.980;4.464;2023-06-10T00:51:58;21.53;59.66
71184;DHT22;58887;51.980;4.464;2023-06-10T00:54:23;21.50;59.62
71184;DHT22;58887;51.980;4.464;2023-06-10T00:56:49;21.56;59.43
71184;DHT22;58887;51.980;4.464;2023-06-10T00:59:15;21.54;59.33
71184;DHT22;58887;51.980;4.464;2023-06-10T01:01:41;21.47;59.46
71184;DHT22;58887;51.980;4.464;2023-06-10T01:04:08;21.47;59.28
71184;DHT22;58887;51.980;4.464;2023-06-10T01:06:47;21.42;59.84
71184;DHT22;58887;51.980;4.464;2023-06-10T01:12:16;21.32;59.87
71184;DHT22;58887;51.980;4.464;2023-06-10T01:14:44;21.30;59.68
71184;DHT22;58887;51.980;4.464;2023-06-10T01:17:11;21.27;59.53
71184;DHT22;58887;51.980;4.464;2023-06-10T01:19:37;21.27;59.39
71184;DHT22;58887;51.980;4.464;2023-06-10T01:22:03;21.27;59.67
71184;DHT22;58887;51.980;4.464;2023-06-10T01:24:31;21.27;59.68
71184;DHT22;58887;51.980;4.464;2023-06-10T01:27:03;21.26;59.56
71184;DHT22;58887;51.980;4.464;2023-06-10T01:29:54;21.23;59.68
71184;DHT22;58887;51.980;4.464;2023-06-10T01:32:28;21.15;59.96
71184;DHT22;58887;51.980;4.464;2023-06-10T01:34:55;21.07;60.05
71184;DHT22;58887;51.980;4.464;2023-06-10T01:37:24;21.05;60.21
71184;DHT22;58887;51.980;4.464;2023-06-10T01:39:52;20.98;60.36
71184;DHT22;58887;51.980;4.464;2023-06-10T01:42:20;20.94;60.28
71184;DHT22;58887;51.980;4.464;2023-06-10T01:44:46;20.96;60.09
71184;DHT22;58887;51.980;4.464;2023-06-10T01:47:12;20.95;60.15
71184;DHT22;58887;51.980;4.464;2023-06-10T01:49:37;20.94;60.41
71184;DHT22;58887;51.980;4.464;2023-06-10T01:52:03;20.84;60.45
71184;DHT22;58887;51.980;4.464;2023-06-10T01:54:29;20.76;60.76
71184;DHT22;58887;51.980;4.464;2023-06-10T01:56:54;20.75;60.54
71184;DHT22;58887;51.980;4.464;2023-06-10T01:59:20;20.71;60.84
71184;DHT22;58887;51.980;4.464;2023-06-10T02:01:45;20.69;60.81
71184;DHT22;58887;51.980;4.464;2023-06-10T02:04:10;20.64;60.76
71184;DHT22;58887;51.980;4.464;2023-06-10T02:06:37;20.67;60.76
71184;DHT22;58887;51.980;4.464;2023-06-10T02:09:03;20.67;60.68
71184;DHT22;58887;51.980;4.464;2023-06-10T02:11:28;20.65;60.69
71184;DHT22;58887;51.980;4.464;2023-06-10T02:13:54;20.59;60.70
71184;DHT22;58887;51.980;4.464;2023-06-10T02:16:20;20.52;60.93
71184;DHT22;58887;51.980;4.464;2023-06-10T02:18:46;20.44;60.93
71184;DHT22;58887;51.980;4.464;2023-06-10T02:21:12;20.45;60.89
71184;DHT22;58887;51.980;4.464;2023-06-10T02:23:38;20.40;61.00
71184;DHT22;58887;51.980;4.464;2023-06-10T02:26:04;20.33;61.20
71184;DHT22;58887;51.980;4.464;2023-06-10T02:28:29;20.36;61.11
71184;DHT22;58887;51.980;4.464;2023-06-10T02:30:54;20.28;61.16
71184;DHT22;58887;51.980;4.464;2023-06-10T02:33:22;20.27;61.27
71184;DHT22;58887;51.980;4.464;2023-06-10T02:35:48;20.16;61.83
71184;DHT22;58887;51.980;4.464;2023-06-10T02:38:14;20.10;61.96
71184;DHT22;58887;51.980;4.464;2023-06-10T02:40:40;20.07;61.86
71184;DHT22;58887;51.980;4.464;2023-06-10T02:43:06;20.05;61.71
71184;DHT22;58887;51.980;4.464;2023-06-10T02:45:31;20.05;61.86
71184;DHT22;58887;51.980;4.464;2023-06-10T02:47:57;20.03;61.93
71184;DHT22;58887;51.980;4.464;2023-06-10T02:50:22;20.00;61.77
71184;DHT22;58887;51.980;4.464;2023-06-10T02:52:48;20.00;61.96
71184;DHT22;58887;51.980;4.464;2023-06-10T02:55:13;19.94;61.85
71184;DHT22;58887;51.980;4.464;2023-06-10T02:57:39;19.97;61.99
71184;DHT22;58887;51.980;4.464;2023-06-10T03:00:05;19.94;61.61
71184;DHT22;58887;51.980;4.464;2023-06-10T03:02:35;19.93;61.83
71184;DHT22;58887;51.980;4.464;2023-06-10T03:05:02;19.89;61.87
71184;DHT22;58887;51.980;4.464;2023-06-10T03:07:27;19.90;61.86
71184;DHT22;58887;51.980;4.464;2023-06-10T03:09:53;19.92;61.70
71184;DHT22;58887;51.980;4.464;2023-06-10T03:12:18;19.90;61.63
71184;DHT22;58887;51.980;4.464;2023-06-10T03:14:44;19.82;61.92
71184;DHT22;58887;51.980;4.464;2023-06-10T03:17:09;19.82;61.85
71184;DHT22;58887;51.980;4.464;2023-06-10T03:19:35;19.89;61.45
71184;DHT22;58887;51.980;4.464;2023-06-10T03:22:11;19.85;61.44
71184;DHT22;58887;51.980;4.464;2023-06-10T03:24:37;19.87;61.26
71184;DHT22;58887;51.980;4.464;2023-06-10T03:27:08;19.83;61.51
71184;DHT22;58887;51.980;4.464;2023-06-10T03:29:35;19.79;61.81
71184;DHT22;58887;51.980;4.464;2023-06-10T03:32:01;19.73;61.81
71184;DHT22;58887;51.980;4.464;2023-06-10T03:34:27;19.78;61.57
71184;DHT22;58887;51.980;4.464;2023-06-10T03:36:52;19.78;61.40
71184;DHT22;58887;51.980;4.464;2023-06-10T03:39:18;19.72;61.29
71184;DHT22;58887;51.980;4.464;2023-06-10T03:41:43;19.70;61.46
71184;DHT22;58887;51.980;4.464;2023-06-10T03:44:08;19.75;61.50
71184;DHT22;58887;51.980;4.464;2023-06-10T03:46:34;19.72;61.19
71184;DHT22;58887;51.980;4.464;2023-06-10T03:48:59;19.66;61.40
71184;DHT22;58887;51.980;4.464;2023-06-10T03:51:29;19.66;61.29
71184;DHT22;58887;51.980;4.464;2023-06-10T03:53:55;19.62;61.13
71184;DHT22;58887;51.980;4.464;2023-06-10T03:56:20;19.63;61.30
71184;DHT22;58887;51.980;4.464;2023-06-10T03:58:46;19.65;61.17
71184;DHT22;58887;51.980;4.464;2023-06-10T04:01:11;19.61;61.37
71184;DHT22;58887;51.980;4.464;2023-06-10T04:03:38;19.65;60.85
71184;DHT22;58887;51.980;4.464;2023-06-10T04:06:05;19.68;60.95
71184;DHT22;58887;51.980;4.464;2023-06-10T04:08:30;19.65;60.53
71184;DHT22;58887;51.980;4.464;2023-06-10T04:10:58;19.65;60.51
71184;DHT22;58887;51.980;4.464;2023-06-10T04:13:23;19.63;60.42
71184;DHT22;58887;51.980;4.464;2023-06-10T04:15:49;19.61;60.44
71184;DHT22;58887;51.980;4.464;2023-06-10T04:18:14;19.66;60.14
71184;DHT22;58887;51.980;4.464;2023-06-10T04:20:40;19.69;60.02
71184;DHT22;58887;51.980;4.464;2023-06-10T04:23:05;19.75;60.09
71184;DHT22;58887;51.980;4.464;2023-06-10T04:25:31;19.69;60.22
71184;DHT22;58887;51.980;4.464;2023-06-10T04:27:56;19.76;60.06
71184;DHT22;58887;51.980;4.464;2023-06-10T04:30:22;19.73;60.03
71184;DHT22;58887;51.980;4.464;2023-06-10T04:32:47;19.76;59.65
71184;DHT22;58887;51.980;4.464;2023-06-10T04:35:13;19.78;59.95
71184;DHT22;58887;51.980;4.464;2023-06-10T04:37:40;19.89;59.54
71184;DHT22;58887;51.980;4.464;2023-06-10T04:40:28;19.94;59.47
71184;DHT22;58887;51.980;4.464;2023-06-10T04:43:10;20.00;59.15
71184;DHT22;58887;51.980;4.464;2023-06-10T04:45:36;20.01;59.60
71184;DHT22;58887;51.980;4.464;2023-06-10T04:48:03;20.05;59.44
71184;DHT22;58887;51.980;4.464;2023-06-10T04:50:29;20.03;59.65
71184;DHT22;58887;51.980;4.464;2023-06-10T04:52:54;20.13;58.74
71184;DHT22;58887;51.980;4.464;2023-06-10T04:55:22;20.23;58.95
71184;DHT22;58887;51.980;4.464;2023-06-10T04:57:48;20.24;59.35
71184;DHT22;58887;51.980;4.464;2023-06-10T05:00:19;20.26;59.41
71184;DHT22;58887;51.980;4.464;2023-06-10T05:02:44;20.31;59.24
71184;DHT22;58887;51.980;4.464;2023-06-10T05:05:11;20.37;58.65
71184;DHT22;58887;51.980;4.464;2023-06-10T05:07:39;20.40;58.81
71184;DHT22;58887;51.980;4.464;2023-06-10T05:10:07;20.45;58.92
71184;DHT22;58887;51.980;4.464;2023-06-10T05:12:33;20.52;58.69
71184;DHT22;58887;51.980;4.464;2023-06-10T05:14:59;20.61;58.19
71184;DHT22;58887;51.980;4.464;2023-06-10T05:17:24;20.61;58.88
71184;DHT22;58887;51.980;4.464;2023-06-10T05:19:53;20.72;58.63
71184;DHT22;58887;51.980;4.464;2023-06-10T05:22:19;20.72;58.94
71184;DHT22;58887;51.980;4.464;2023-06-10T05:24:44;20.76;59.07
71184;DHT22;58887;51.980;4.464;2023-06-10T05:27:10;20.84;58.45
71184;DHT22;58887;51.980;4.464;2023-06-10T05:29:36;20.92;58.20
71184;DHT22;58887;51.980;4.464;2023-06-10T05:32:01;21.03;58.18
71184;DHT22;58887;51.980;4.464;2023-06-10T05:34:29;21.09;57.85
71184;DHT22;58887;51.980;4.464;2023-06-10T05:36:55;21.10;58.73
71184;DHT22;58887;51.980;4.464;2023-06-10T05:39:20;21.19;57.55
71184;DHT22;58887;51.980;4.464;2023-06-10T05:41:46;21.16;58.23
71184;DHT22;58887;51.980;4.464;2023-06-10T05:44:11;21.29;58.05
71184;DHT22;58887;51.980;4.464;2023-06-10T05:46:37;21.29;57.83
71184;DHT22;58887;51.980;4.464;2023-06-10T05:49:02;21.39;57.04
71184;DHT22;58887;51.980;4.464;2023-06-10T05:51:28;21.50;57.73
71184;DHT22;58887;51.980;4.464;2023-06-10T05:53:54;21.58;57.34
71184;DHT22;58887;51.980;4.464;2023-06-10T05:56:20;21.49;57.39
71184;DHT22;58887;51.980;4.464;2023-06-10T05:58:48;21.64;57.15
71184;DHT22;58887;51.980;4.464;2023-06-10T06:01:14;21.65;57.62
71184;DHT22;58887;51.980;4.464;2023-06-10T06:03:39;21.84;56.86
71184;DHT22;58887;51.980;4.464;2023-06-10T06:06:05;21.94;56.46
71184;DHT22;58887;51.980;4.464;2023-06-10T06:08:31;22.00;56.02
71184;DHT22;58887;51.980;4.464;2023-06-10T06:10:56;22.18;56.34
71184;DHT22;58887;51.980;4.464;2023-06-10T06:13:22;22.15;55.27
71184;DHT22;58887;51.980;4.464;2023-06-10T06:15:47;22.29;55.18
71184;DHT22;58887;51.980;4.464;2023-06-10T06:18:12;22.25;55.84
71184;DHT22;58887;51.980;4.464;2023-06-10T06:20:38;22.22;55.63
71184;DHT22;58887;51.980;4.464;2023-06-10T06:23:04;22.31;55.82
71184;DHT22;58887;51.980;4.464;2023-06-10T06:25:29;22.39;55.04
71184;DHT22;58887;51.980;4.464;2023-06-10T06:27:55;22.51;54.89
71184;DHT22;58887;51.980;4.464;2023-06-10T06:30:20;22.63;55.12
71184;DHT22;58887;51.980;4.464;2023-06-10T06:32:46;22.80;55.05
71184;DHT22;58887;51.980;4.464;2023-06-10T06:35:11;22.94;53.68
71184;DHT22;58887;51.980;4.464;2023-06-10T06:37:37;22.90;54.25
71184;DHT22;58887;51.980;4.464;2023-06-10T06:40:02;22.90;53.99
71184;DHT22;58887;51.980;4.464;2023-06-10T06:42:29;22.93;54.22
71184;DHT22;58887;51.980;4.464;2023-06-10T06:44:54;23.06;53.71
71184;DHT22;58887;51.980;4.464;2023-06-10T06:47:20;23.18;53.87
71184;DHT22;58887;51.980;4.464;2023-06-10T06:49:46;23.40;54.25
71184;DHT22;58887;51.980;4.464;2023-06-10T06:52:12;23.37;53.01
71184;DHT22;58887;51.980;4.464;2023-06-10T06:54:38;23.52;53.58
71184;DHT22;58887;51.980;4.464;2023-06-10T06:57:03;23.55;53.86
71184;DHT22;58887;51.980;4.464;2023-06-10T06:59:29;23.66;53.49
71184;DHT22;58887;51.980;4.464;2023-06-10T07:01:54;23.76;52.90
71184;DHT22;58887;51.980;4.464;2023-06-10T07:04:20;23.88;53.12
71184;DHT22;58887;51.980;4.464;2023-06-10T07:06:49;24.10;52.43
71184;DHT22;58887;51.980;4.464;2023-06-10T07:09:14;24.21;52.56
71184;DHT22;58887;51.980;4.464;2023-06-10T07:11:40;24.41;51.50
71184;DHT22;58887;51.980;4.464;2023-06-10T07:14:06;24.43;52.09
71184;DHT22;58887;51.980;4.464;2023-06-10T07:16:32;24.53;50.92
71184;DHT22;58887;51.980;4.464;2023-06-10T07:18:57;24.68;51.37
71184;DHT22;58887;51.980;4.464;2023-06-10T07:21:23;24.81;50.28
71184;DHT22;58887;51.980;4.464;2023-06-10T07:23:49;24.91;49.65
71184;DHT22;58887;51.980;4.464;2023-06-10T07:26:17;24.94;49.40
71184;DHT22;58887;51.980;4.464;2023-06-10T07:28:43;25.01;49.21
71184;DHT22;58887;51.980;4.464;2023-06-10T07:31:08;25.23;49.76
71184;DHT22;58887;51.980;4.464;2023-06-10T07:33:34;25.39;48.21
71184;DHT22;58887;51.980;4.464;2023-06-10T07:36:00;25.39;47.54
71184;DHT22;58887;51.980;4.464;2023-06-10T07:38:26;25.40;47.75
71184;DHT22;58887;51.980;4.464;2023-06-10T07:40:51;25.65;48.02
71184;DHT22;58887;51.980;4.464;2023-06-10T07:43:17;25.81;47.53
71184;DHT22;58887;51.980;4.464;2023-06-10T07:45:44;25.87;47.75
71184;DHT22;58887;51.980;4.464;2023-06-10T07:48:10;26.01;46.61
71184;DHT22;58887;51.980;4.464;2023-06-10T07:50:35;26.17;46.67
71184;DHT22;58887;51.980;4.464;2023-06-10T07:53:01;26.22;45.78
71184;DHT22;58887;51.980;4.464;2023-06-10T07:55:27;26.28;45.70
71184;DHT22;58887;51.980;4.464;2023-06-10T07:57:54;26.32;46.75
71184;DHT22;58887;51.980;4.464;2023-06-10T08:00:20;26.52;47.01
71184;DHT22;58887;51.980;4.464;2023-06-10T08:02:46;26.65;46.79
71184;DHT22;58887;51.980;4.464;2023-06-10T08:05:11;26.65;44.74
71184;DHT22;58887;51.980;4.464;2023-06-10T08:07:37;26.71;44.77
71184;DHT22;58887;51.980;4.464;2023-06-10T08:10:03;26.92;45.13
71184;DHT22;58887;51.980;4.464;2023-06-10T08:12:30;27.13;45.62
71184;DHT22;58887;51.980;4.464;2023-06-10T08:14:55;27.26;44.39
71184;DHT22;58887;51.980;4.464;2023-06-10T08:17:21;27.35;42.92
71184;DHT22;58887;51.980;4.464;2023-06-10T08:19:47;27.47;44.74
71184;DHT22;58887;51.980;4.464;2023-06-10T08:22:15;27.44;43.87
71184;DHT22;58887;51.980;4.464;2023-06-10T08:24:45;27.45;43.78
71184;DHT22;58887;51.980;4.464;2023-06-10T08:27:10;27.50;43.95
71184;DHT22;58887;51.980;4.464;2023-06-10T08:29:36;27.66;44.36
71184;DHT22;58887;51.980;4.464;2023-06-10T08:32:03;27.88;44.31
71184;DHT22;58887;51.980;4.464;2023-06-10T08:34:28;28.17;42.90
71184;DHT22;58887;51.980;4.464;2023-06-10T08:36:54;28.23;43.14
71184;DHT22;58887;51.980;4.464;2023-06-10T08:39:23;28.26;42.85
71184;DHT22;58887;51.980;4.464;2023-06-10T08:44:42;28.44;42.50
71184;DHT22;58887;51.980;4.464;2023-06-10T08:47:16;28.60;42.72
71184;DHT22;58887;51.980;4.464;2023-06-10T08:49:45;28.72;42.45
71184;DHT22;58887;51.980;4.464;2023-06-10T08:52:18;28.80;40.62
71184;DHT22;58887;51.980;4.464;2023-06-10T08:55:08;28.94;40.46
71184;DHT22;58887;51.980;4.464;2023-06-10T08:57:37;29.05;40.31
71184;DHT22;58887;51.980;4.464;2023-06-10T09:00:04;28.92;40.22
71184;DHT22;58887;51.980;4.464;2023-06-10T09:02:31;29.08;40.08
71184;DHT22;58887;51.980;4.464;2023-06-10T09:05:01;29.32;40.46
71184;DHT22;58887;51.980;4.464;2023-06-10T09:07:29;29.40;38.77
71184;DHT22;58887;51.980;4.464;2023-06-10T09:10:04;29.46;39.38
71184;DHT22;58887;51.980;4.464;2023-06-10T09:12:34;29.53;39.85
71184;DHT22;58887;51.980;4.464;2023-06-10T09:15:08;29.58;40.38
71184;DHT22;58887;51.980;4.464;2023-06-10T09:17:39;29.74;39.54
71184;DHT22;58887;51.980;4.464;2023-06-10T09:20:08;29.87;38.42
71184;DHT22;58887;51.980;4.464;2023-06-10T09:22:42;30.10;38.33
71184;DHT22;58887;51.980;4.464;2023-06-10T09:25:11;30.27;39.99
71184;DHT22;58887;51.980;4.464;2023-06-10T09:27:52;30.55;37.76
71184;DHT22;58887;51.980;4.464;2023-06-10T09:30:33;30.72;37.15
71184;DHT22;58887;51.980;4.464;2023-06-10T09:33:13;30.71;38.63
71184;DHT22;58887;51.980;4.464;2023-06-10T09:35:48;30.62;37.42
71184;DHT22;58887;51.980;4.464;2023-06-10T09:38:19;30.75;38.05
71184;DHT22;58887;51.980;4.464;2023-06-10T09:41:05;31.17;35.96
71184;DHT22;58887;51.980;4.464;2023-06-10T09:43:44;31.20;37.32
71184;DHT22;58887;51.980;4.464;2023-06-10T09:46:30;31.46;36.48
71184;DHT22;58887;51.980;4.464;2023-06-10T09:48:58;31.86;37.57
71184;DHT22;58887;51.980;4.464;2023-06-10T09:51:24;32.15;35.44
71184;DHT22;58887;51.980;4.464;2023-06-10T09:53:53;32.11;35.47
71184;DHT22;58887;51.980;4.464;2023-06-10T09:56:19;32.22;36.24
71184;DHT22;58887;51.980;4.464;2023-06-10T09:58:46;32.49;35.16
71184;DHT22;58887;51.980;4.464;2023-06-10T10:01:14;32.63;36.11
71184;DHT22;58887;51.980;4.464;2023-06-10T10:03:44;32.99;35.23
71184;DHT22;58887;51.980;4.464;2023-06-10T10:06:12;33.14;34.44
71184;DHT22;58887;51.980;4.464;2023-06-10T10:08:38;33.44;33.88
71184;DHT22;58887;51.980;4.464;2023-06-10T10:11:03;33.49;34.32
71184;DHT22;58887;51.980;4.464;2023-06-10T10:13:33;33.62;33.07
71184;DHT22;58887;51.980;4.464;2023-06-10T10:16:10;33.68;34.13
71184;DHT22;58887;51.980;4.464;2023-06-10T10:18:41;33.70;33.97
71184;DHT22;58887;51.980;4.464;2023-06-10T10:21:13;33.58;32.44
71184;DHT22;58887;51.980;4.464;2023-06-10T10:24:03;33.78;33.10
71184;DHT22;58887;51.980;4.464;2023-06-10T10:26:31;34.00;32.84
71184;DHT22;58887;51.980;4.464;2023-06-10T10:29:28;33.93;33.73
71184;DHT22;58887;51.980;4.464;2023-06-10T10:31:56;34.21;33.08
71184;DHT22;58887;51.980;4.464;2023-06-10T10:34:35;34.71;32.65
71184;DHT22;58887;51.980;4.464;2023-06-10T10:37:02;35.06;30.23
71184;DHT22;58887;51.980;4.464;2023-06-10T10:39:29;35.01;29.22
71184;DHT22;58887;51.980;4.464;2023-06-10T10:41:56;35.19;30.65
71184;DHT22;58887;51.980;4.464;2023-06-10T10:44:24;34.99;29.60
71184;DHT22;58887;51.980;4.464;2023-06-10T10:46:51;34.83;29.31
71184;DHT22;58887;51.980;4.464;2023-06-10T10:49:18;35.24;31.13
71184;DHT22;58887;51.980;4.464;2023-06-10T10:52:01;35.73;30.37
71184;DHT22;58887;51.980;4.464;2023-06-10T10:54:35;35.36;29.64
71184;DHT22;58887;51.980;4.464;2023-06-10T10:57:21;35.79;29.90
71184;DHT22;58887;51.980;4.464;2023-06-10T10:59:57;36.08;29.13
71184;DHT22;58887;51.980;4.464;2023-06-10T11:05:16;35.77;28.66
71184;DHT22;58887;51.980;4.464;2023-06-10T11:07:53;35.79;26.95
71184;DHT22;58887;51.980;4.464;2023-06-10T11:10:32;35.39;27.60
71184;DHT22;58887;51.980;4.464;2023-06-10T11:12:59;35.57;28.48
71184;DHT22;58887;51.980;4.464;2023-06-10T11:15:25;35.53;29.04
71184;DHT22;58887;51.980;4.464;2023-06-10T11:31:22;36.13;26.88
71184;DHT22;58887;51.980;4.464;2023-06-10T11:33:55;36.01;27.98
71184;DHT22;58887;51.980;4.464;2023-06-10T11:36:22;36.58;28.51
71184;DHT22;58887;51.980;4.464;2023-06-10T11:38:48;37.18;27.11
71184;DHT22;58887;51.980;4.464;2023-06-10T11:41:14;37.16;27.86
71184;DHT22;58887;51.980;4.464;2023-06-10T11:43:44;37.44;27.56
71184;DHT22;58887;51.980;4.464;2023-06-10T11:46:11;37.47;25.70
71184;DHT22;58887;51.980;4.464;2023-06-10T11:48:37;37.47;26.18
71184;DHT22;58887;51.980;4.464;2023-06-10T11:51:09;37.36;28.84
71184;DHT22;58887;51.980;4.464;2023-06-10T11:53:35;37.57;24.62
71184;DHT22;58887;51.980;4.464;2023-06-10T11:56:00;37.87;27.14
71184;DHT22;58887;51.980;4.464;2023-06-10T11:58:26;38.14;25.68
71184;DHT22;58887;51.980;4.464;2023-06-10T12:00:53;38.21;24.84
71184;DHT22;58887;51.980;4.464;2023-06-10T12:03:21;38.32;24.74
71184;DHT22;58887;51.980;4.464;2023-06-10T12:05:58;38.45;25.74
71184;DHT22;58887;51.980;4.464;2023-06-10T12:08:24;38.89;23.87
71184;DHT22;58887;51.980;4.464;2023-06-10T12:10:50;38.96;23.23
71184;DHT22;58887;51.980;4.464;2023-06-10T12:13:16;38.65;24.47
71184;DHT22;58887;51.980;4.464;2023-06-10T12:15:45;38.87;25.52
71184;DHT22;58887;51.980;4.464;2023-06-10T12:20:43;38.66;24.60
71184;DHT22;58887;51.980;4.464;2023-06-10T12:23:10;38.96;24.37
71184;DHT22;58887;51.980;4.464;2023-06-10T12:25:36;38.87;24.11
71184;DHT22;58887;51.980;4.464;2023-06-10T12:28:05;39.28;25.09
71184;DHT22;58887;51.980;4.464;2023-06-10T12:30:32;39.72;23.96
71184;DHT22;58887;51.980;4.464;2023-06-10T12:32:58;39.00;23.18
71184;DHT22;58887;51.980;4.464;2023-06-10T12:35:26;38.67;24.66
71184;DHT22;58887;51.980;4.464;2023-06-10T12:37:57;39.09;24.70
71184;DHT22;58887;51.980;4.464;2023-06-10T12:40:36;39.35;24.76
71184;DHT22;58887;51.980;4.464;2023-06-10T12:43:02;39.25;25.78
71184;DHT22;58887;51.980;4.464;2023-06-10T12:45:35;39.31;25.39
71184;DHT22;58887;51.980;4.464;2023-06-10T12:48:08;39.40;23.03
71184;DHT22;58887;51.980;4.464;2023-06-10T12:50:39;39.50;24.71
71184;DHT22;58887;51.980;4.464;2023-06-10T12:53:05;39.35;23.22
71184;DHT22;58887;51.980;4.464;2023-06-10T12:55:31;39.45;23.79
71184;DHT22;58887;51.980;4.464;2023-06-10T12:57:57;39.47;23.95
71184;DHT22;58887;51.980;4.464;2023-06-10T13:00:23;40.20;22.69
71184;DHT22;58887;51.980;4.464;2023-06-10T13:02:52;39.60;23.98
71184;DHT22;58887;51.980;4.464;2023-06-10T13:05:18;39.72;22.30
71184;DHT22;58887;51.980;4.464;2023-06-10T13:07:45;39.88;23.81
71184;DHT22;58887;51.980;4.464;2023-06-10T13:10:13;40.29;22.78
71184;DHT22;58887;51.980;4.464;2023-06-10T13:12:39;40.32;22.42
71184;DHT22;58887;51.980;4.464;2023-06-10T13:15:05;40.01;22.74
71184;DHT22;58887;51.980;4.464;2023-06-10T13:17:31;40.11;22.78
71184;DHT22;58887;51.980;4.464;2023-06-10T13:19:56;39.85;21.94
71184;DHT22;58887;51.980;4.464;2023-06-10T13:22:21;39.40;21.60
71184;DHT22;58887;51.980;4.464;2023-06-10T13:24:49;39.40;22.33
71184;DHT22;58887;51.980;4.464;2023-06-10T13:27:14;39.28;21.62
71184;DHT22;58887;51.980;4.464;2023-06-10T13:29:40;39.27;23.00
71184;DHT22;58887;51.980;4.464;2023-06-10T13:32:06;39.27;22.26
71184;DHT22;58887;51.980;4.464;2023-06-10T13:34:32;38.89;22.23
71184;DHT22;58887;51.980;4.464;2023-06-10T13:36:57;39.17;23.01
71184;DHT22;58887;51.980;4.464;2023-06-10T13:39:23;39.40;22.33
71184;DHT22;58887;51.980;4.464;2023-06-10T13:41:48;39.28;22.54
71184;DHT22;58887;51.980;4.464;2023-06-10T13:44:14;39.55;21.71
71184;DHT22;58887;51.980;4.464;2023-06-10T13:46:40;39.69;21.67
71184;DHT22;58887;51.980;4.464;2023-06-10T13:49:06;39.47;22.58
71184;DHT22;58887;51.980;4.464;2023-06-10T13:51:31;39.38;21.89
71184;DHT22;58887;51.980;4.464;2023-06-10T13:53:56;39.00;22.23
71184;DHT22;58887;51.980;4.464;2023-06-10T13:56:22;39.21;24.44
71184;DHT22;58887;51.980;4.464;2023-06-10T13:58:48;39.55;22.57
71184;DHT22;58887;51.980;4.464;2023-06-10T14:01:13;39.57;23.26
71184;DHT22;58887;51.980;4.464;2023-06-10T14:03:39;38.45;22.69
71184;DHT22;58887;51.980;4.464;2023-06-10T14:06:05;38.92;24.02
71184;DHT22;58887;51.980;4.464;2023-06-10T14:08:30;39.40;23.19
71184;DHT22;58887;51.980;4.464;2023-06-10T14:10:55;39.60;22.82
71184;DHT22;58887;51.980;4.464;2023-06-10T14:13:21;39.51;22.09
71184;DHT22;58887;51.980;4.464;2023-06-10T14:15:46;38.76;23.55
71184;DHT22;58887;51.980;4.464;2023-06-10T14:18:12;39.14;22.88
71184;DHT22;58887;51.980;4.464;2023-06-10T14:20:37;39.55;22.97
71184;DHT22;58887;51.980;4.464;2023-06-10T14:23:03;39.82;21.69
71184;DHT22;58887;51.980;4.464;2023-06-10T14:25:28;39.40;22.05
71184;DHT22;58887;51.980;4.464;2023-06-10T14:27:54;39.24;22.27
71184;DHT22;58887;51.980;4.464;2023-06-10T14:30:19;39.28;22.49
71184;DHT22;58887;51.980;4.464;2023-06-10T14:32:45;39.28;22.85
71184;DHT22;58887;51.980;4.464;2023-06-10T14:35:10;39.48;22.08
71184;DHT22;58887;51.980;4.464;2023-06-10T14:37:36;39.27;22.69
71184;DHT22;58887;51.980;4.464;2023-06-10T14:40:04;39.40;22.33
71184;DHT22;58887;51.980;4.464;2023-06-10T14:42:30;39.72;22.43
71184;DHT22;58887;51.980;4.464;2023-06-10T14:44:57;39.81;23.10
71184;DHT22;58887;51.980;4.464;2023-06-10T14:47:22;39.50;20.67
71184;DHT22;58887;51.980;4.464;2023-06-10T14:49:49;38.90;20.42
71184;DHT22;58887;51.980;4.464;2023-06-10T14:52:16;38.73;22.77
71184;DHT22;58887;51.980;4.464;2023-06-10T14:54:41;39.57;20.52
71184;DHT22;58887;51.980;4.464;2023-06-10T14:57:07;39.85;22.49
71184;DHT22;58887;51.980;4.464;2023-06-10T14:59:33;40.11;21.08
71184;DHT22;58887;51.980;4.464;2023-06-10T15:01:59;40.09;20.68
71184;DHT22;58887;51.980;4.464;2023-06-10T15:04:26;39.75;21.79
71184;DHT22;58887;51.980;4.464;2023-06-10T15:06:52;40.06;21.85
71184;DHT22;58887;51.980;4.464;2023-06-10T15:09:17;39.98;22.21
71184;DHT22;58887;51.980;4.464;2023-06-10T15:11:43;39.91;21.85
71184;DHT22;58887;51.980;4.464;2023-06-10T15:14:08;40.24;21.12
71184;DHT22;58887;51.980;4.464;2023-06-10T15:16:33;40.02;20.83
71184;DHT22;58887;51.980;4.464;2023-06-10T15:18:59;40.02;20.41
71184;DHT22;58887;51.980;4.464;2023-06-10T15:21:24;39.58;20.59
71184;DHT22;58887;51.980;4.464;2023-06-10T15:23:50;39.52;21.82
71184;DHT22;58887;51.980;4.464;2023-06-10T15:26:16;39.91;21.60
71184;DHT22;58887;51.980;4.464;2023-06-10T15:28:41;39.74;20.56
71184;DHT22;58887;51.980;4.464;2023-06-10T15:31:07;39.35;20.97
71184;DHT22;58887;51.980;4.464;2023-06-10T15:33:34;39.31;22.39
71184;DHT22;58887;51.980;4.464;2023-06-10T15:35:59;39.58;20.66
71184;DHT22;58887;51.980;4.464;2023-06-10T15:38:25;39.57;22.39
71184;DHT22;58887;51.980;4.464;2023-06-10T15:40:50;39.50;23.08
71184;DHT22;58887;51.980;4.464;2023-06-10T15:43:16;39.52;23.53
71184;DHT22;58887;51.980;4.464;2023-06-10T15:45:42;38.99;24.17
71184;DHT22;58887;51.980;4.464;2023-06-10T15:48:07;38.69;24.63
71184;DHT22;58887;51.980;4.464;2023-06-10T15:50:33;38.58;23.85
71184;DHT22;58887;51.980;4.464;2023-06-10T15:52:58;38.24;24.52
71184;DHT22;58887;51.980;4.464;2023-06-10T15:55:24;38.08;25.19